sensor_id;sensor_type;location;lat;lon;timestamp;P1;durP1;ratioP1;P2;durP2;ratioP2
46701;SDS011;33449;50.712;7.124;2023-03-03T00:02:22;27.23;;;12.60;;
46701;SDS011;33449;50.712;7.124;2023-03-03T00:04:52;20.75;;;11.30;;
46701;SDS011;33449;50.712;7.124;2023-03-03T00:07:21;22.05;;;11.57;;
46701;SDS011;33449;50.712;7.124;2023-03-03T00:09:48;27.10;;;12.38;;
46701;SDS011;33449;50.712;7.124;2023-03-03T00:12:27;29.52;;;13.30;;
46701;SDS011;33449;50.712;7.124;2023-03-03T00:14:54;30.00;;;12.80;;
46701;SDS011;33449;50.712;7.124;2023-03-03T00:17:27;30.80;;;13.68;;
46701;SDS011;33449;50.712;7.124;2023-03-03T00:22:27;29.38;;;13.40;;
46701;SDS011;33449;50.712;7.124;2023-03-03T00:25:21;27.77;;;12.63;;
46701;SDS011;33449;50.712;7.124;2023-03-03T00:27:46;31.67;;;13.43;;
46701;SDS011;33449;50.712;7.124;2023-03-03T00:30:19;30.02;;;13.48;;
46701;SDS011;33449;50.712;7.124;2023-03-03T00:32:50;26.63;;;14.57;;
46701;SDS011;33449;50.712;7.124;2023-03-03T00:37:58;24.02;;;12.38;;
46701;SDS011;33449;50.712;7.124;2023-03-03T00:40:37;33.75;;;14.93;;
46701;SDS011;33449;50.712;7.124;2023-03-03T00:43:13;29.75;;;14.00;;
46701;SDS011;33449;50.712;7.124;2023-03-03T00:45:45;33.88;;;14.43;;
46701;SDS011;33449;50.712;7.124;2023-03-03T00:48:26;38.40;;;16.38;;
46701;SDS011;33449;50.712;7.124;2023-03-03T00:50:56;45.30;;;19.67;;
46701;SDS011;33449;50.712;7.124;2023-03-03T00:53:27;35.08;;;16.00;;
46701;SDS011;33449;50.712;7.124;2023-03-03T00:55:55;33.53;;;15.77;;
46701;SDS011;33449;50.712;7.124;2023-03-03T00:58:22;35.00;;;16.00;;
46701;SDS011;33449;50.712;7.124;2023-03-03T01:00:51;31.20;;;15.70;;
46701;SDS011;33449;50.712;7.124;2023-03-03T01:03:31;33.05;;;15.23;;
46701;SDS011;33449;50.712;7.124;2023-03-03T01:05:59;38.40;;;15.67;;
46701;SDS011;33449;50.712;7.124;2023-03-03T01:08:26;34.38;;;15.77;;
46701;SDS011;33449;50.712;7.124;2023-03-03T01:10:56;30.23;;;14.77;;
46701;SDS011;33449;50.712;7.124;2023-03-03T01:13:29;30.52;;;13.80;;
46701;SDS011;33449;50.712;7.124;2023-03-03T01:15:58;29.55;;;15.27;;
46701;SDS011;33449;50.712;7.124;2023-03-03T01:18:26;39.03;;;18.17;;
46701;SDS011;33449;50.712;7.124;2023-03-03T01:20:53;37.05;;;17.45;;
46701;SDS011;33449;50.712;7.124;2023-03-03T01:23:20;35.70;;;16.05;;
46701;SDS011;33449;50.712;7.124;2023-03-03T01:25:48;39.35;;;19.27;;
46701;SDS011;33449;50.712;7.124;2023-03-03T01:28:15;40.33;;;18.30;;
46701;SDS011;33449;50.712;7.124;2023-03-03T01:30:45;50.00;;;21.10;;
46701;SDS011;33449;50.712;7.124;2023-03-03T01:33:12;40.45;;;21.20;;
46701;SDS011;33449;50.712;7.124;2023-03-03T01:35:43;52.95;;;22.95;;
46701;SDS011;33449;50.712;7.124;2023-03-03T01:38:11;51.25;;;22.92;;
46701;SDS011;33449;50.712;7.124;2023-03-03T01:40:38;49.33;;;22.50;;
46701;SDS011;33449;50.712;7.124;2023-03-03T01:43:16;46.47;;;21.50;;
46701;SDS011;33449;50.712;7.124;2023-03-03T01:46:24;45.38;;;21.60;;
46701;SDS011;33449;50.712;7.124;2023-03-03T01:48:52;55.00;;;22.83;;
46701;SDS011;33449;50.712;7.124;2023-03-03T01:51:27;55.92;;;23.33;;
46701;SDS011;33449;50.712;7.124;2023-03-03T01:53:58;49.70;;;23.35;;
46701;SDS011;33449;50.712;7.124;2023-03-03T01:56:27;53.05;;;25.48;;
46701;SDS011;33449;50.712;7.124;2023-03-03T01:58:58;58.92;;;26.55;;
46701;SDS011;33449;50.712;7.124;2023-03-03T02:01:30;58.85;;;25.58;;
46701;SDS011;33449;50.712;7.124;2023-03-03T02:03:58;52.03;;;23.98;;
46701;SDS011;33449;50.712;7.124;2023-03-03T02:06:30;60.50;;;27.45;;
46701;SDS011;33449;50.712;7.124;2023-03-03T02:11:47;62.80;;;27.63;;
46701;SDS011;33449;50.712;7.124;2023-03-03T02:14:20;63.72;;;27.45;;
46701;SDS011;33449;50.712;7.124;2023-03-03T02:16:47;57.63;;;27.08;;
46701;SDS011;33449;50.712;7.124;2023-03-03T02:19:21;71.28;;;27.40;;
46701;SDS011;33449;50.712;7.124;2023-03-03T02:21:50;73.53;;;28.23;;
46701;SDS011;33449;50.712;7.124;2023-03-03T02:26:51;67.80;;;30.48;;
46701;SDS011;33449;50.712;7.124;2023-03-03T02:29:28;71.85;;;31.95;;
46701;SDS011;33449;50.712;7.124;2023-03-03T02:32:00;73.43;;;30.67;;
46701;SDS011;33449;50.712;7.124;2023-03-03T02:34:27;71.25;;;29.73;;
46701;SDS011;33449;50.712;7.124;2023-03-03T02:36:55;69.85;;;30.98;;
46701;SDS011;33449;50.712;7.124;2023-03-03T02:39:24;75.38;;;31.70;;
46701;SDS011;33449;50.712;7.124;2023-03-03T02:44:20;73.83;;;30.80;;
46701;SDS011;33449;50.712;7.124;2023-03-03T02:46:49;73.85;;;34.92;;
46701;SDS011;33449;50.712;7.124;2023-03-03T02:49:21;75.07;;;32.15;;
46701;SDS011;33449;50.712;7.124;2023-03-03T02:51:49;72.78;;;32.72;;
46701;SDS011;33449;50.712;7.124;2023-03-03T02:54:17;73.47;;;34.00;;
46701;SDS011;33449;50.712;7.124;2023-03-03T02:56:45;77.22;;;34.08;;
46701;SDS011;33449;50.712;7.124;2023-03-03T02:59:17;75.35;;;34.33;;
46701;SDS011;33449;50.712;7.124;2023-03-03T03:01:47;76.13;;;34.97;;
46701;SDS011;33449;50.712;7.124;2023-03-03T03:04:15;82.40;;;34.70;;
46701;SDS011;33449;50.712;7.124;2023-03-03T03:06:43;86.70;;;37.63;;
46701;SDS011;33449;50.712;7.124;2023-03-03T03:09:15;78.25;;;33.47;;
46701;SDS011;33449;50.712;7.124;2023-03-03T03:11:45;80.28;;;34.03;;
46701;SDS011;33449;50.712;7.124;2023-03-03T03:16:42;85.10;;;33.85;;
46701;SDS011;33449;50.712;7.124;2023-03-03T03:19:09;87.07;;;33.65;;
46701;SDS011;33449;50.712;7.124;2023-03-03T03:21:37;79.38;;;35.08;;
46701;SDS011;33449;50.712;7.124;2023-03-03T03:24:05;80.85;;;34.83;;
46701;SDS011;33449;50.712;7.124;2023-03-03T03:26:32;81.45;;;35.10;;
46701;SDS011;33449;50.712;7.124;2023-03-03T03:29:00;87.57;;;36.83;;
46701;SDS011;33449;50.712;7.124;2023-03-03T03:31:27;81.25;;;34.72;;
46701;SDS011;33449;50.712;7.124;2023-03-03T03:33:54;85.50;;;33.47;;
46701;SDS011;33449;50.712;7.124;2023-03-03T03:36:21;81.00;;;36.28;;
46701;SDS011;33449;50.712;7.124;2023-03-03T03:38:50;90.97;;;37.03;;
46701;SDS011;33449;50.712;7.124;2023-03-03T03:41:17;97.75;;;40.25;;
46701;SDS011;33449;50.712;7.124;2023-03-03T03:43:45;93.60;;;38.28;;
46701;SDS011;33449;50.712;7.124;2023-03-03T03:46:12;90.63;;;35.33;;
46701;SDS011;33449;50.712;7.124;2023-03-03T03:48:40;90.28;;;38.67;;
46701;SDS011;33449;50.712;7.124;2023-03-03T03:51:08;96.43;;;39.47;;
46701;SDS011;33449;50.712;7.124;2023-03-03T03:53:38;91.72;;;37.45;;
46701;SDS011;33449;50.712;7.124;2023-03-03T03:56:06;85.70;;;36.15;;
46701;SDS011;33449;50.712;7.124;2023-03-03T03:58:33;105.70;;;40.35;;
46701;SDS011;33449;50.712;7.124;2023-03-03T04:01:05;95.28;;;40.45;;
46701;SDS011;33449;50.712;7.124;2023-03-03T04:03:34;95.63;;;39.70;;
46701;SDS011;33449;50.712;7.124;2023-03-03T04:06:02;100.70;;;42.25;;
46701;SDS011;33449;50.712;7.124;2023-03-03T04:08:31;107.18;;;42.70;;
46701;SDS011;33449;50.712;7.124;2023-03-03T04:10:58;104.03;;;41.55;;
46701;SDS011;33449;50.712;7.124;2023-03-03T04:13:26;102.47;;;41.97;;
46701;SDS011;33449;50.712;7.124;2023-03-03T04:15:57;108.57;;;43.08;;
46701;SDS011;33449;50.712;7.124;2023-03-03T04:18:27;100.63;;;42.35;;
46701;SDS011;33449;50.712;7.124;2023-03-03T04:20:54;103.50;;;44.38;;
46701;SDS011;33449;50.712;7.124;2023-03-03T04:23:22;100.25;;;39.40;;
46701;SDS011;33449;50.712;7.124;2023-03-03T04:25:50;103.75;;;42.10;;
46701;SDS011;33449;50.712;7.124;2023-03-03T04:28:17;105.28;;;41.80;;
46701;SDS011;33449;50.712;7.124;2023-03-03T04:30:45;115.50;;;42.85;;
46701;SDS011;33449;50.712;7.124;2023-03-03T04:33:12;105.07;;;43.10;;
46701;SDS011;33449;50.712;7.124;2023-03-03T04:35:42;101.13;;;40.05;;
46701;SDS011;33449;50.712;7.124;2023-03-03T04:38:10;110.63;;;45.67;;
46701;SDS011;33449;50.712;7.124;2023-03-03T04:40:38;105.30;;;41.78;;
46701;SDS011;33449;50.712;7.124;2023-03-03T04:43:07;118.65;;;46.58;;
46701;SDS011;33449;50.712;7.124;2023-03-03T04:45:34;114.25;;;43.45;;
46701;SDS011;33449;50.712;7.124;2023-03-03T04:48:02;116.55;;;45.50;;
46701;SDS011;33449;50.712;7.124;2023-03-03T04:50:31;116.93;;;44.70;;
46701;SDS011;33449;50.712;7.124;2023-03-03T04:55:29;110.88;;;42.65;;
46701;SDS011;33449;50.712;7.124;2023-03-03T04:57:56;114.25;;;44.17;;
46701;SDS011;33449;50.712;7.124;2023-03-03T05:00:26;120.30;;;45.70;;
46701;SDS011;33449;50.712;7.124;2023-03-03T05:02:56;116.63;;;44.03;;
46701;SDS011;33449;50.712;7.124;2023-03-03T05:05:28;119.68;;;46.65;;
46701;SDS011;33449;50.712;7.124;2023-03-03T05:07:58;108.20;;;43.17;;
46701;SDS011;33449;50.712;7.124;2023-03-03T05:10:25;122.90;;;47.50;;
46701;SDS011;33449;50.712;7.124;2023-03-03T05:12:52;118.65;;;44.55;;
46701;SDS011;33449;50.712;7.124;2023-03-03T05:15:20;110.20;;;44.53;;
46701;SDS011;33449;50.712;7.124;2023-03-03T05:17:47;123.15;;;49.28;;
46701;SDS011;33449;50.712;7.124;2023-03-03T05:20:15;112.88;;;45.40;;
46701;SDS011;33449;50.712;7.124;2023-03-03T05:22:43;115.65;;;45.95;;
46701;SDS011;33449;50.712;7.124;2023-03-03T05:25:13;111.05;;;43.33;;
46701;SDS011;33449;50.712;7.124;2023-03-03T05:27:40;118.97;;;45.88;;
46701;SDS011;33449;50.712;7.124;2023-03-03T05:30:13;122.35;;;46.90;;
46701;SDS011;33449;50.712;7.124;2023-03-03T05:32:44;119.75;;;48.20;;
46701;SDS011;33449;50.712;7.124;2023-03-03T05:35:14;115.28;;;45.53;;
46701;SDS011;33449;50.712;7.124;2023-03-03T05:37:41;120.18;;;44.80;;
46701;SDS011;33449;50.712;7.124;2023-03-03T05:40:12;109.97;;;44.95;;
46701;SDS011;33449;50.712;7.124;2023-03-03T05:42:40;116.15;;;44.33;;
46701;SDS011;33449;50.712;7.124;2023-03-03T05:45:07;123.07;;;45.38;;
46701;SDS011;33449;50.712;7.124;2023-03-03T05:47:35;106.82;;;44.90;;
46701;SDS011;33449;50.712;7.124;2023-03-03T05:50:03;118.25;;;44.47;;
46701;SDS011;33449;50.712;7.124;2023-03-03T05:52:30;120.18;;;43.85;;
46701;SDS011;33449;50.712;7.124;2023-03-03T05:54:58;114.90;;;45.78;;
46701;SDS011;33449;50.712;7.124;2023-03-03T05:57:28;124.78;;;46.53;;
46701;SDS011;33449;50.712;7.124;2023-03-03T05:59:58;113.20;;;45.22;;
46701;SDS011;33449;50.712;7.124;2023-03-03T06:02:25;112.22;;;42.35;;
46701;SDS011;33449;50.712;7.124;2023-03-03T06:04:52;107.78;;;45.03;;
46701;SDS011;33449;50.712;7.124;2023-03-03T06:07:20;112.38;;;43.55;;
46701;SDS011;33449;50.712;7.124;2023-03-03T06:09:47;119.50;;;45.13;;
46701;SDS011;33449;50.712;7.124;2023-03-03T06:12:14;121.20;;;44.78;;
46701;SDS011;33449;50.712;7.124;2023-03-03T06:19:40;118.47;;;46.03;;
46701;SDS011;33449;50.712;7.124;2023-03-03T06:22:07;111.75;;;40.20;;
46701;SDS011;33449;50.712;7.124;2023-03-03T06:24:37;100.85;;;39.40;;
46701;SDS011;33449;50.712;7.124;2023-03-03T06:27:05;111.75;;;42.38;;
46701;SDS011;33449;50.712;7.124;2023-03-03T06:29:33;110.40;;;42.80;;
46701;SDS011;33449;50.712;7.124;2023-03-03T06:32:03;104.28;;;41.33;;
46701;SDS011;33449;50.712;7.124;2023-03-03T06:34:30;79.90;;;32.00;;
46701;SDS011;33449;50.712;7.124;2023-03-03T06:36:58;99.20;;;37.90;;
46701;SDS011;33449;50.712;7.124;2023-03-03T06:39:28;98.05;;;38.58;;
46701;SDS011;33449;50.712;7.124;2023-03-03T06:41:55;97.43;;;38.88;;
46701;SDS011;33449;50.712;7.124;2023-03-03T06:44:22;88.75;;;35.78;;
46701;SDS011;33449;50.712;7.124;2023-03-03T06:46:54;85.57;;;34.42;;
46701;SDS011;33449;50.712;7.124;2023-03-03T06:49:25;77.63;;;33.92;;
46701;SDS011;33449;50.712;7.124;2023-03-03T06:51:53;76.80;;;33.70;;
46701;SDS011;33449;50.712;7.124;2023-03-03T06:54:21;80.47;;;31.50;;
46701;SDS011;33449;50.712;7.124;2023-03-03T06:56:55;79.53;;;33.63;;
46701;SDS011;33449;50.712;7.124;2023-03-03T06:59:25;77.55;;;33.47;;
46701;SDS011;33449;50.712;7.124;2023-03-03T07:01:53;79.15;;;30.50;;
46701;SDS011;33449;50.712;7.124;2023-03-03T07:06:48;80.90;;;31.88;;
46701;SDS011;33449;50.712;7.124;2023-03-03T07:09:26;79.22;;;33.08;;
46701;SDS011;33449;50.712;7.124;2023-03-03T07:12:01;72.32;;;30.42;;
46701;SDS011;33449;50.712;7.124;2023-03-03T07:14:32;81.38;;;32.88;;
46701;SDS011;33449;50.712;7.124;2023-03-03T07:17:01;78.78;;;29.88;;
46701;SDS011;33449;50.712;7.124;2023-03-03T07:19:32;73.32;;;33.58;;
46701;SDS011;33449;50.712;7.124;2023-03-03T07:24:46;67.43;;;30.00;;
46701;SDS011;33449;50.712;7.124;2023-03-03T07:29:46;68.60;;;28.38;;
46701;SDS011;33449;50.712;7.124;2023-03-03T07:34:47;72.22;;;30.83;;
46701;SDS011;33449;50.712;7.124;2023-03-03T07:37:16;75.65;;;30.77;;
46701;SDS011;33449;50.712;7.124;2023-03-03T07:39:46;76.50;;;30.77;;
46701;SDS011;33449;50.712;7.124;2023-03-03T07:42:21;78.03;;;30.13;;
46701;SDS011;33449;50.712;7.124;2023-03-03T07:44:58;75.35;;;32.30;;
46701;SDS011;33449;50.712;7.124;2023-03-03T07:47:35;72.65;;;29.67;;
46701;SDS011;33449;50.712;7.124;2023-03-03T07:50:12;75.90;;;31.10;;
46701;SDS011;33449;50.712;7.124;2023-03-03T07:52:42;83.93;;;32.78;;
46701;SDS011;33449;50.712;7.124;2023-03-03T07:57:54;81.00;;;33.80;;
46701;SDS011;33449;50.712;7.124;2023-03-03T08:02:59;81.90;;;33.88;;
46701;SDS011;33449;50.712;7.124;2023-03-03T08:05:38;82.57;;;32.50;;
46701;SDS011;33449;50.712;7.124;2023-03-03T08:10:57;79.40;;;31.10;;
46701;SDS011;33449;50.712;7.124;2023-03-03T08:13:28;79.85;;;32.17;;
46701;SDS011;33449;50.712;7.124;2023-03-03T08:18:41;78.90;;;30.98;;
46701;SDS011;33449;50.712;7.124;2023-03-03T08:21:13;75.63;;;32.40;;
46701;SDS011;33449;50.712;7.124;2023-03-03T08:23:41;70.18;;;28.40;;
46701;SDS011;33449;50.712;7.124;2023-03-03T08:26:08;73.25;;;31.73;;
46701;SDS011;33449;50.712;7.124;2023-03-03T08:28:35;73.38;;;29.60;;
46701;SDS011;33449;50.712;7.124;2023-03-03T08:31:05;67.85;;;29.65;;
46701;SDS011;33449;50.712;7.124;2023-03-03T08:33:50;69.22;;;28.90;;
46701;SDS011;33449;50.712;7.124;2023-03-03T08:36:21;64.07;;;28.20;;
46701;SDS011;33449;50.712;7.124;2023-03-03T08:38:48;67.63;;;28.95;;
46701;SDS011;33449;50.712;7.124;2023-03-03T08:41:18;78.95;;;29.00;;
46701;SDS011;33449;50.712;7.124;2023-03-03T08:43:45;73.07;;;28.75;;
46701;SDS011;33449;50.712;7.124;2023-03-03T08:46:12;65.78;;;28.70;;
46701;SDS011;33449;50.712;7.124;2023-03-03T08:48:40;64.00;;;27.55;;
46701;SDS011;33449;50.712;7.124;2023-03-03T08:51:08;69.00;;;28.75;;
46701;SDS011;33449;50.712;7.124;2023-03-03T08:53:36;70.15;;;27.13;;
46701;SDS011;33449;50.712;7.124;2023-03-03T08:56:06;67.03;;;28.42;;
46701;SDS011;33449;50.712;7.124;2023-03-03T08:58:34;67.15;;;28.00;;
46701;SDS011;33449;50.712;7.124;2023-03-03T09:01:02;64.72;;;26.25;;
46701;SDS011;33449;50.712;7.124;2023-03-03T09:03:30;60.08;;;27.70;;
46701;SDS011;33449;50.712;7.124;2023-03-03T09:06:00;69.63;;;27.98;;
46701;SDS011;33449;50.712;7.124;2023-03-03T09:08:27;74.88;;;29.02;;
46701;SDS011;33449;50.712;7.124;2023-03-03T09:10:55;65.32;;;27.70;;
46701;SDS011;33449;50.712;7.124;2023-03-03T09:13:22;65.72;;;28.13;;
46701;SDS011;33449;50.712;7.124;2023-03-03T09:15:51;62.85;;;27.63;;
46701;SDS011;33449;50.712;7.124;2023-03-03T09:18:36;72.70;;;30.02;;
46701;SDS011;33449;50.712;7.124;2023-03-03T09:21:38;71.70;;;30.35;;
46701;SDS011;33449;50.712;7.124;2023-03-03T09:23:58;67.70;;;28.45;;
46701;SDS011;33449;50.712;7.124;2023-03-03T09:26:27;65.32;;;27.33;;
46701;SDS011;33449;50.712;7.124;2023-03-03T09:31:28;69.80;;;27.33;;
46701;SDS011;33449;50.712;7.124;2023-03-03T09:34:15;65.88;;;27.63;;
46701;SDS011;33449;50.712;7.124;2023-03-03T09:36:44;69.53;;;29.05;;
46701;SDS011;33449;50.712;7.124;2023-03-03T09:39:15;70.93;;;30.77;;
46701;SDS011;33449;50.712;7.124;2023-03-03T09:47:11;82.18;;;32.60;;
46701;SDS011;33449;50.712;7.124;2023-03-03T09:49:48;77.22;;;32.15;;
46701;SDS011;33449;50.712;7.124;2023-03-03T10:00:36;78.90;;;30.63;;
46701;SDS011;33449;50.712;7.124;2023-03-03T10:03:16;81.25;;;31.98;;
46701;SDS011;33449;50.712;7.124;2023-03-03T10:06:00;74.78;;;31.38;;
46701;SDS011;33449;50.712;7.124;2023-03-03T10:16:16;77.07;;;34.33;;
46701;SDS011;33449;50.712;7.124;2023-03-03T10:19:02;81.35;;;31.60;;
46701;SDS011;33449;50.712;7.124;2023-03-03T10:21:37;71.50;;;29.92;;
46701;SDS011;33449;50.712;7.124;2023-03-03T10:24:26;65.60;;;29.17;;
46701;SDS011;33449;50.712;7.124;2023-03-03T10:27:07;70.30;;;31.23;;
46701;SDS011;33449;50.712;7.124;2023-03-03T10:29:45;64.25;;;27.65;;
46701;SDS011;33449;50.712;7.124;2023-03-03T11:19:26;56.72;;;25.13;;
46701;SDS011;33449;50.712;7.124;2023-03-03T11:27:18;55.88;;;26.15;;
46701;SDS011;33449;50.712;7.124;2023-03-03T11:32:32;54.05;;;25.23;;
46701;SDS011;33449;50.712;7.124;2023-03-03T11:37:51;57.40;;;26.67;;
46701;SDS011;33449;50.712;7.124;2023-03-03T11:40:26;52.50;;;23.10;;
46701;SDS011;33449;50.712;7.124;2023-03-03T11:55:37;58.00;;;28.25;;
46701;SDS011;33449;50.712;7.124;2023-03-03T12:11:15;62.80;;;30.52;;
46701;SDS011;33449;50.712;7.124;2023-03-03T12:13:55;62.45;;;28.70;;
46701;SDS011;33449;50.712;7.124;2023-03-03T12:21:31;71.32;;;33.13;;
46701;SDS011;33449;50.712;7.124;2023-03-03T12:24:10;62.58;;;30.77;;
46701;SDS011;33449;50.712;7.124;2023-03-03T12:26:51;67.18;;;30.35;;
46701;SDS011;33449;50.712;7.124;2023-03-03T12:32:00;70.60;;;33.47;;
46701;SDS011;33449;50.712;7.124;2023-03-03T12:45:08;72.68;;;32.83;;
46701;SDS011;33449;50.712;7.124;2023-03-03T12:47:53;73.22;;;33.85;;
46701;SDS011;33449;50.712;7.124;2023-03-03T12:56:10;67.78;;;32.33;;
46701;SDS011;33449;50.712;7.124;2023-03-03T13:01:44;67.82;;;32.63;;
46701;SDS011;33449;50.712;7.124;2023-03-03T13:13:03;69.35;;;30.00;;
46701;SDS011;33449;50.712;7.124;2023-03-03T13:15:47;68.60;;;29.55;;
46701;SDS011;33449;50.712;7.124;2023-03-03T13:20:59;67.88;;;30.30;;
46701;SDS011;33449;50.712;7.124;2023-03-03T13:23:39;66.80;;;29.40;;
46701;SDS011;33449;50.712;7.124;2023-03-03T13:29:02;68.07;;;30.88;;
46701;SDS011;33449;50.712;7.124;2023-03-03T13:31:32;62.47;;;29.75;;
46701;SDS011;33449;50.712;7.124;2023-03-03T13:34:01;72.68;;;29.42;;
46701;SDS011;33449;50.712;7.124;2023-03-03T13:38:59;62.05;;;28.60;;
46701;SDS011;33449;50.712;7.124;2023-03-03T13:41:29;58.78;;;26.63;;
46701;SDS011;33449;50.712;7.124;2023-03-03T13:44:08;55.63;;;27.30;;
46701;SDS011;33449;50.712;7.124;2023-03-03T13:49:21;57.77;;;27.33;;
46701;SDS011;33449;50.712;7.124;2023-03-03T13:52:07;58.85;;;28.02;;
46701;SDS011;33449;50.712;7.124;2023-03-03T14:07:48;54.67;;;25.95;;
46701;SDS011;33449;50.712;7.124;2023-03-03T14:10:28;57.25;;;27.35;;
46701;SDS011;33449;50.712;7.124;2023-03-03T14:15:33;48.88;;;22.83;;
46701;SDS011;33449;50.712;7.124;2023-03-03T14:26:10;48.00;;;23.20;;
46701;SDS011;33449;50.712;7.124;2023-03-03T14:36:49;66.40;;;28.63;;
46701;SDS011;33449;50.712;7.124;2023-03-03T14:39:37;62.22;;;27.17;;
46701;SDS011;33449;50.712;7.124;2023-03-03T14:44:52;59.83;;;26.52;;
46701;SDS011;33449;50.712;7.124;2023-03-03T14:47:23;63.95;;;26.67;;
46701;SDS011;33449;50.712;7.124;2023-03-03T14:49:55;63.90;;;26.10;;
46701;SDS011;33449;50.712;7.124;2023-03-03T14:52:27;51.45;;;24.20;;
46701;SDS011;33449;50.712;7.124;2023-03-03T14:54:59;61.17;;;26.13;;
46701;SDS011;33449;50.712;7.124;2023-03-03T14:57:42;66.30;;;28.55;;
46701;SDS011;33449;50.712;7.124;2023-03-03T15:13:12;56.13;;;24.80;;
46701;SDS011;33449;50.712;7.124;2023-03-03T15:31:21;61.72;;;25.50;;
46701;SDS011;33449;50.712;7.124;2023-03-03T15:39:50;59.55;;;26.83;;
46701;SDS011;33449;50.712;7.124;2023-03-03T15:42:23;67.10;;;26.70;;
46701;SDS011;33449;50.712;7.124;2023-03-03T15:50:42;63.15;;;26.75;;
46701;SDS011;33449;50.712;7.124;2023-03-03T15:53:26;64.40;;;28.00;;
46701;SDS011;33449;50.712;7.124;2023-03-03T16:01:14;71.28;;;30.02;;
46701;SDS011;33449;50.712;7.124;2023-03-03T16:03:46;74.38;;;29.75;;
46701;SDS011;33449;50.712;7.124;2023-03-03T16:06:31;78.57;;;31.23;;
46701;SDS011;33449;50.712;7.124;2023-03-03T16:09:23;83.70;;;33.55;;
46701;SDS011;33449;50.712;7.124;2023-03-03T16:17:14;76.32;;;30.33;;
46701;SDS011;33449;50.712;7.124;2023-03-03T16:22:23;93.38;;;33.38;;
46701;SDS011;33449;50.712;7.124;2023-03-03T16:24:58;83.45;;;31.88;;
46701;SDS011;33449;50.712;7.124;2023-03-03T16:32:38;94.47;;;35.78;;
46701;SDS011;33449;50.712;7.124;2023-03-03T16:35:22;96.90;;;35.15;;
46701;SDS011;33449;50.712;7.124;2023-03-03T16:38:00;98.05;;;36.60;;
46701;SDS011;33449;50.712;7.124;2023-03-03T16:40:30;97.70;;;39.92;;
46701;SDS011;33449;50.712;7.124;2023-03-03T16:43:05;108.78;;;41.45;;
46701;SDS011;33449;50.712;7.124;2023-03-03T16:48:18;115.20;;;41.22;;
46701;SDS011;33449;50.712;7.124;2023-03-03T16:50:58;108.72;;;41.05;;
46701;SDS011;33449;50.712;7.124;2023-03-03T16:53:50;106.80;;;37.63;;
46701;SDS011;33449;50.712;7.124;2023-03-03T17:04:30;103.40;;;38.38;;
46701;SDS011;33449;50.712;7.124;2023-03-03T17:07:48;112.32;;;42.40;;
46701;SDS011;33449;50.712;7.124;2023-03-03T17:09:51;130.35;;;44.58;;
46701;SDS011;33449;50.712;7.124;2023-03-03T17:15:11;106.65;;;40.13;;
46701;SDS011;33449;50.712;7.124;2023-03-03T17:22:56;119.80;;;45.58;;
46701;SDS011;33449;50.712;7.124;2023-03-03T17:26:03;137.75;;;45.10;;
46701;SDS011;33449;50.712;7.124;2023-03-03T17:38:24;114.85;;;43.83;;
46701;SDS011;33449;50.712;7.124;2023-03-03T17:41:03;128.00;;;49.83;;
46701;SDS011;33449;50.712;7.124;2023-03-03T17:46:16;128.45;;;48.63;;
46701;SDS011;33449;50.712;7.124;2023-03-03T17:49:00;129.68;;;45.67;;
46701;SDS011;33449;50.712;7.124;2023-03-03T17:51:43;131.35;;;46.58;;
46701;SDS011;33449;50.712;7.124;2023-03-03T17:54:34;132.98;;;48.33;;
46701;SDS011;33449;50.712;7.124;2023-03-03T17:59:44;125.50;;;44.55;;
46701;SDS011;33449;50.712;7.124;2023-03-03T18:10:23;127.75;;;46.53;;
46701;SDS011;33449;50.712;7.124;2023-03-03T18:15:56;118.60;;;42.75;;
46701;SDS011;33449;50.712;7.124;2023-03-03T18:21:25;116.85;;;42.60;;
46701;SDS011;33449;50.712;7.124;2023-03-03T18:24:14;126.28;;;49.08;;
46701;SDS011;33449;50.712;7.124;2023-03-03T18:28:12;136.20;;;47.85;;
46701;SDS011;33449;50.712;7.124;2023-03-03T18:32:41;142.27;;;48.25;;
46701;SDS011;33449;50.712;7.124;2023-03-03T18:35:25;134.85;;;48.00;;
46701;SDS011;33449;50.712;7.124;2023-03-03T18:37:53;150.75;;;51.85;;
46701;SDS011;33449;50.712;7.124;2023-03-03T18:40:27;147.63;;;51.83;;
46701;SDS011;33449;50.712;7.124;2023-03-03T18:42:54;136.07;;;47.67;;
46701;SDS011;33449;50.712;7.124;2023-03-03T18:48:10;139.30;;;51.20;;
46701;SDS011;33449;50.712;7.124;2023-03-03T18:50:42;151.20;;;50.33;;
46701;SDS011;33449;50.712;7.124;2023-03-03T19:01:13;148.00;;;52.53;;
46701;SDS011;33449;50.712;7.124;2023-03-03T19:04:10;162.23;;;53.90;;
46701;SDS011;33449;50.712;7.124;2023-03-03T19:12:10;175.88;;;57.40;;
46701;SDS011;33449;50.712;7.124;2023-03-03T19:14:46;163.13;;;60.72;;
46701;SDS011;33449;50.712;7.124;2023-03-03T19:22:30;176.45;;;59.78;;
46701;SDS011;33449;50.712;7.124;2023-03-03T19:27:34;167.80;;;58.22;;
46701;SDS011;33449;50.712;7.124;2023-03-03T19:30:10;173.88;;;59.75;;
46701;SDS011;33449;50.712;7.124;2023-03-03T19:43:28;188.75;;;63.05;;
46701;SDS011;33449;50.712;7.124;2023-03-03T19:48:52;174.13;;;65.85;;
46701;SDS011;33449;50.712;7.124;2023-03-03T19:59:11;179.70;;;62.03;;
46701;SDS011;33449;50.712;7.124;2023-03-03T20:09:58;188.75;;;61.70;;
46701;SDS011;33449;50.712;7.124;2023-03-03T20:20:08;198.93;;;63.92;;
46701;SDS011;33449;50.712;7.124;2023-03-03T20:22:43;195.45;;;62.13;;
46701;SDS011;33449;50.712;7.124;2023-03-03T20:35:21;200.60;;;65.75;;
46701;SDS011;33449;50.712;7.124;2023-03-03T20:38:01;181.43;;;59.33;;
46701;SDS011;33449;50.712;7.124;2023-03-03T20:40:47;183.55;;;63.03;;
46701;SDS011;33449;50.712;7.124;2023-03-03T20:43:20;183.75;;;63.50;;
46701;SDS011;33449;50.712;7.124;2023-03-03T20:45:54;184.20;;;60.78;;
46701;SDS011;33449;50.712;7.124;2023-03-03T21:01:31;181.57;;;63.45;;
46701;SDS011;33449;50.712;7.124;2023-03-03T21:04:17;193.90;;;62.88;;
46701;SDS011;33449;50.712;7.124;2023-03-03T21:06:47;195.77;;;64.05;;
46701;SDS011;33449;50.712;7.124;2023-03-03T21:12:01;162.63;;;57.67;;
46701;SDS011;33449;50.712;7.124;2023-03-03T21:16:59;195.27;;;64.88;;
46701;SDS011;33449;50.712;7.124;2023-03-03T21:19:29;187.20;;;60.20;;
46701;SDS011;33449;50.712;7.124;2023-03-03T21:22:02;183.93;;;61.45;;
46701;SDS011;33449;50.712;7.124;2023-03-03T21:24:48;175.15;;;61.97;;
46701;SDS011;33449;50.712;7.124;2023-03-03T21:27:29;182.85;;;62.65;;
46701;SDS011;33449;50.712;7.124;2023-03-03T21:30:15;185.10;;;61.85;;
46701;SDS011;33449;50.712;7.124;2023-03-03T21:32:45;201.40;;;67.57;;
46701;SDS011;33449;50.712;7.124;2023-03-03T21:35:16;171.23;;;58.28;;
46701;SDS011;33449;50.712;7.124;2023-03-03T21:37:49;185.57;;;66.72;;
46701;SDS011;33449;50.712;7.124;2023-03-03T21:40:21;187.73;;;65.75;;
46701;SDS011;33449;50.712;7.124;2023-03-03T21:42:54;171.77;;;59.83;;
46701;SDS011;33449;50.712;7.124;2023-03-03T21:45:27;191.13;;;63.83;;
46701;SDS011;33449;50.712;7.124;2023-03-03T21:47:56;182.70;;;62.55;;
46701;SDS011;33449;50.712;7.124;2023-03-03T21:53:08;201.77;;;64.13;;
46701;SDS011;33449;50.712;7.124;2023-03-03T21:55:35;185.48;;;63.97;;
46701;SDS011;33449;50.712;7.124;2023-03-03T21:58:07;185.63;;;65.05;;
46701;SDS011;33449;50.712;7.124;2023-03-03T22:00:37;191.23;;;65.28;;